Time;durP1;ratioP1;P1;durP2;ratioP2;P2;SDS_P1;SDS_P2;PMS_P1;PMS_P2;Temp;Humidity;BMP_temperature;BMP_pressure;BME280_temperature;BME280_humidity;BME280_pressure;Samples;Min_cycle;Max_cycle;Signal;HPM_P1;HPM_P2
2022/06/25 00:01:57;;;;;;;2.40;1.15;;;17.10;99.90;;;;;;5031051;28;20175;-68
2022/06/25 00:07:08;;;;;;;3.53;1.30;;;17.10;99.90;;;;;;5031562;28;20180;-68
2022/06/25 00:09:33;;;;;;;1.52;1.42;;;17.00;99.90;;;;;;5019061;28;20266;-68
2022/06/25 00:14:43;;;;;;;3.15;1.80;;;17.00;99.90;;;;;;5034228;28;20192;-68
2022/06/25 00:17:09;;;;;;;3.55;1.50;;;17.00;99.90;;;;;;5035329;28;20178;-68
2022/06/25 00:19:34;;;;;;;3.97;1.75;;;16.90;99.90;;;;;;5035357;28;20197;-68
2022/06/25 00:22:00;;;;;;;2.42;1.70;;;16.90;99.90;;;;;;5035248;28;20255;-68
2022/06/25 00:24:25;;;;;;;7.78;2.13;;;16.80;99.90;;;;;;5035259;28;20220;-68
2022/06/25 00:26:51;;;;;;;2.97;1.50;;;16.80;99.90;;;;;;5035410;28;20182;-68
2022/06/25 00:29:16;;;;;;;3.42;1.50;;;16.80;99.90;;;;;;5035224;28;20265;-68
2022/06/25 00:31:42;;;;;;;3.58;2.47;;;16.80;99.90;;;;;;5035003;28;20663;-68
2022/06/25 00:34:08;;;;;;;2.75;1.40;;;16.80;99.90;;;;;;5035190;28;20204;-68
2022/06/25 00:36:34;;;;;;;2.03;1.25;;;16.80;99.90;;;;;;5034910;28;20213;-68
2022/06/25 00:39:00;;;;;;;1.75;1.52;;;16.80;99.90;;;;;;5034785;28;20257;-68
2022/06/25 00:41:26;;;;;;;3.20;1.40;;;16.70;99.90;;;;;;5034870;28;20693;-68
2022/06/25 00:43:51;;;;;;;4.55;1.38;;;16.70;99.90;;;;;;5034953;28;20174;-68
2022/06/25 00:46:17;;;;;;;2.38;1.40;;;16.80;99.90;;;;;;5034715;28;20225;-68
2022/06/25 00:48:42;;;;;;;2.10;1.08;;;16.70;99.90;;;;;;5017358;28;20208;-68
2022/06/25 00:51:13;;;;;;;1.33;1.30;;;16.70;99.90;;;;;;5034806;28;20185;-68
2022/06/25 00:53:42;;;;;;;2.17;1.50;;;16.60;99.90;;;;;;5017178;28;20174;-68
2022/06/25 00:56:09;;;;;;;3.67;1.83;;;16.60;99.90;;;;;;5034422;28;20291;-68
2022/06/25 00:58:40;;;;;;;7.00;1.42;;;16.60;99.90;;;;;;5034628;28;20256;-68
2022/06/25 01:01:09;;;;;;;2.95;1.30;;;16.50;99.90;;;;;;5031263;28;20175;-68
2022/06/25 01:03:38;;;;;;;2.00;1.20;;;16.50;99.90;;;;;;5034612;28;20182;-68
2022/06/25 01:06:05;;;;;;;4.05;1.30;;;16.50;99.90;;;;;;5034399;28;20186;-68
2022/06/25 01:08:32;;;;;;;1.70;1.60;;;16.50;99.90;;;;;;5034349;28;20186;-68
2022/06/25 01:10:58;;;;;;;2.75;1.50;;;16.50;99.90;;;;;;5034479;28;20228;-68
2022/06/25 01:13:24;;;;;;;3.10;1.30;;;16.50;99.90;;;;;;5034139;28;20186;-69
2022/06/25 01:15:50;;;;;;;4.60;1.60;;;16.40;99.90;;;;;;5034333;28;20185;-68
2022/06/25 01:18:17;;;;;;;2.10;1.90;;;16.40;99.90;;;;;;5034538;28;20252;-68
2022/06/25 01:20:43;;;;;;;4.60;1.52;;;16.40;99.90;;;;;;5034231;28;20178;-68
2022/06/25 01:23:09;;;;;;;2.67;1.52;;;16.40;99.90;;;;;;5034380;28;20181;-68
2022/06/25 01:25:39;;;;;;;1.77;1.50;;;16.30;99.90;;;;;;5034324;28;20178;-68
2022/06/25 01:28:05;;;;;;;4.78;2.47;;;16.20;99.90;;;;;;5016794;28;20209;-68
2022/06/25 01:30:31;;;;;;;3.30;1.80;;;16.20;99.90;;;;;;5034004;28;20676;-68
2022/06/25 01:32:57;;;;;;;2.47;1.55;;;16.10;99.90;;;;;;5034142;28;20226;-68
2022/06/25 01:35:23;;;;;;;2.83;1.50;;;16.10;99.90;;;;;;5034147;28;20185;-68
2022/06/25 01:37:48;;;;;;;2.53;1.30;;;16.10;99.90;;;;;;5033321;28;20321;-68
2022/06/25 01:40:14;;;;;;;4.60;1.40;;;16.00;99.90;;;;;;5034114;28;20667;-68
2022/06/25 01:42:58;;;;;;;5.47;1.60;;;16.00;99.90;;;;;;5034184;28;20209;-68
2022/06/25 01:45:24;;;;;;;4.53;1.40;;;16.00;99.90;;;;;;5033449;28;20170;-68
2022/06/25 01:47:50;;;;;;;2.90;1.50;;;16.00;99.90;;;;;;5014453;28;20650;-68
2022/06/25 01:50:16;;;;;;;5.20;1.52;;;16.00;99.90;;;;;;5031767;28;20205;-68
2022/06/25 01:52:48;;;;;;;4.72;1.70;;;16.00;99.90;;;;;;5034004;28;20264;-68
2022/06/25 01:55:15;;;;;;;4.20;1.52;;;16.00;99.90;;;;;;5033288;28;20174;-68
2022/06/25 01:57:41;;;;;;;3.13;1.75;;;16.00;99.90;;;;;;5017527;28;20210;-68
2022/06/25 02:00:10;;;;;;;5.32;1.65;;;15.90;99.90;;;;;;5033480;28;20645;-69
2022/06/25 02:02:37;;;;;;;6.22;1.60;;;15.90;99.90;;;;;;5009286;28;20265;-68
2022/06/25 02:05:04;;;;;;;3.15;1.60;;;15.80;99.90;;;;;;5033520;28;20182;-68
2022/06/25 02:07:30;;;;;;;4.25;1.70;;;15.80;99.90;;;;;;5033392;28;20186;-68
2022/06/25 02:09:56;;;;;;;1.70;1.60;;;15.70;99.90;;;;;;5033663;28;20316;-68
2022/06/25 02:12:21;;;;;;;2.10;1.60;;;15.70;99.90;;;;;;5033687;28;20198;-68
2022/06/25 02:14:47;;;;;;;2.55;1.50;;;15.70;99.90;;;;;;5033780;28;20269;-68
2022/06/25 02:17:13;;;;;;;2.95;1.48;;;15.70;99.90;;;;;;5032850;28;20189;-68
2022/06/25 02:19:38;;;;;;;1.80;1.55;;;15.70;99.90;;;;;;5033477;28;20178;-69
2022/06/25 02:22:04;;;;;;;2.55;1.50;;;15.70;99.90;;;;;;5033055;28;20189;-69
2022/06/25 02:24:29;;;;;;;3.45;1.58;;;15.70;99.90;;;;;;5033099;28;20190;-68
2022/06/25 02:26:55;;;;;;;4.07;1.60;;;15.70;99.90;;;;;;5015697;28;20605;-68
2022/06/25 02:29:21;;;;;;;2.95;1.55;;;15.70;99.90;;;;;;5033130;28;20253;-68
2022/06/25 02:31:47;;;;;;;4.30;1.45;;;15.70;99.90;;;;;;5031240;28;20664;-68
2022/06/25 02:34:12;;;;;;;3.05;1.35;;;15.70;99.90;;;;;;5033161;28;20261;-68
2022/06/25 02:36:38;;;;;;;2.55;1.30;;;15.70;99.90;;;;;;5030798;28;20231;-68
2022/06/25 02:39:03;;;;;;;2.75;1.30;;;15.80;99.90;;;;;;5031197;28;20237;-68
2022/06/25 02:41:29;;;;;;;2.80;1.40;;;15.70;99.90;;;;;;5013053;28;20175;-69
2022/06/25 02:43:54;;;;;;;2.25;1.60;;;15.70;99.90;;;;;;5016838;28;20250;-68
2022/06/25 02:46:20;;;;;;;1.55;1.45;;;15.70;99.90;;;;;;5032925;28;20178;-68
2022/06/25 02:48:46;;;;;;;3.00;1.35;;;15.60;99.90;;;;;;5032632;28;20174;-68
2022/06/25 02:51:11;;;;;;;3.05;1.20;;;15.70;99.90;;;;;;5032474;28;20182;-68
2022/06/25 02:53:37;;;;;;;1.85;1.23;;;15.70;99.90;;;;;;5014910;28;20193;-68
2022/06/25 02:58:58;;;;;;;4.75;1.42;;;15.60;99.90;;;;;;5032123;28;20263;-69
2022/06/25 03:01:25;;;;;;;3.97;1.70;;;15.50;99.90;;;;;;5032155;28;20197;-69
2022/06/25 03:03:51;;;;;;;1.00;1.00;;;15.50;99.90;;;;;;5032263;28;20281;-69
2022/06/25 03:06:18;;;;;;;4.00;1.55;;;15.40;99.90;;;;;;5032549;28;20204;-69
2022/06/25 03:08:44;;;;;;;1.27;1.27;;;15.40;99.90;;;;;;5033030;28;20185;-68
2022/06/25 03:11:09;;;;;;;1.50;1.40;;;15.40;99.90;;;;;;5029723;28;20296;-68
2022/06/25 03:13:36;;;;;;;1.38;1.25;;;15.40;99.90;;;;;;5014666;28;20270;-69
2022/06/25 03:16:04;;;;;;;3.67;1.58;;;15.50;99.90;;;;;;5032536;28;20190;-69
2022/06/25 03:18:29;;;;;;;1.10;1.10;;;15.40;99.90;;;;;;5031869;28;20344;-69
2022/06/25 03:20:55;;;;;;;3.65;1.30;;;15.40;99.90;;;;;;5032328;28;20249;-69
2022/06/25 03:23:20;;;;;;;1.70;1.52;;;15.40;99.90;;;;;;5014270;28;20185;-68
2022/06/25 03:25:46;;;;;;;1.45;1.35;;;15.30;99.90;;;;;;4997867;28;20182;-69
2022/06/25 03:28:12;;;;;;;4.82;1.42;;;15.40;99.90;;;;;;5031597;28;20225;-69
2022/06/25 03:30:38;;;;;;;1.98;1.50;;;15.30;99.90;;;;;;5031762;28;20186;-69
2022/06/25 03:33:03;;;;;;;1.45;1.35;;;15.30;99.90;;;;;;5031647;28;20194;-68
2022/06/25 03:35:29;;;;;;;4.97;1.75;;;15.30;99.90;;;;;;5031938;28;20284;-69
2022/06/25 03:37:55;;;;;;;3.28;1.33;;;15.30;99.90;;;;;;5031704;28;20222;-68
2022/06/25 03:40:21;;;;;;;5.47;1.60;;;15.30;99.90;;;;;;5031626;28;20641;-69
2022/06/25 03:42:46;;;;;;;1.73;1.63;;;15.40;99.90;;;;;;5031807;28;20174;-68
2022/06/25 03:45:12;;;;;;;3.85;1.55;;;15.40;99.90;;;;;;5031912;28;20184;-69
2022/06/25 03:47:38;;;;;;;1.70;1.60;;;15.40;99.90;;;;;;5031118;28;20263;-69
2022/06/25 03:50:03;;;;;;;1.95;1.40;;;15.40;99.90;;;;;;5013001;28;20174;-69
2022/06/25 03:52:30;;;;;;;3.67;1.33;;;15.40;99.90;;;;;;5031657;28;20213;-69
2022/06/25 03:54:55;;;;;;;1.58;1.40;;;15.40;99.90;;;;;;5031680;28;20581;-68
2022/06/25 03:57:21;;;;;;;1.63;1.52;;;15.40;99.90;;;;;;5031507;28;20232;-68
2022/06/25 03:59:47;;;;;;;1.42;1.33;;;15.50;99.90;;;;;;5031519;28;20174;-68
2022/06/25 04:02:12;;;;;;;3.55;1.58;;;15.50;99.90;;;;;;5031807;28;20178;-68
2022/06/25 04:04:38;;;;;;;2.13;1.50;;;15.50;99.90;;;;;;5031370;28;20189;-69
2022/06/25 04:07:04;;;;;;;2.85;1.48;;;15.50;99.90;;;;;;5031439;28;20662;-68
2022/06/25 04:09:30;;;;;;;2.58;1.33;;;15.50;99.90;;;;;;5031419;28;20255;-69
2022/06/25 04:11:56;;;;;;;1.55;1.45;;;15.50;99.90;;;;;;5031248;28;20193;-69
2022/06/25 04:14:21;;;;;;;1.60;1.50;;;15.60;99.90;;;;;;5031676;28;20182;-69
2022/06/25 04:16:47;;;;;;;4.18;1.30;;;15.60;99.90;;;;;;5031380;28;20525;-69
2022/06/25 04:19:13;;;;;;;1.35;1.25;;;15.80;99.90;;;;;;5031328;28;20578;-69
2022/06/25 04:21:38;;;;;;;1.67;1.40;;;16.00;99.90;;;;;;5030971;28;20232;-69
2022/06/25 04:24:04;;;;;;;2.17;1.45;;;16.30;99.90;;;;;;5031490;28;20672;-69
2022/06/25 04:26:30;;;;;;;6.00;1.40;;;16.70;99.90;;;;;;5031144;28;20188;-69
2022/06/25 04:29:04;;;;;;;1.83;1.30;;;17.10;99.90;;;;;;5031334;28;20217;-69
2022/06/25 04:31:31;;;;;;;7.40;1.30;;;17.60;99.90;;;;;;5031026;28;20209;-69
2022/06/25 04:33:58;;;;;;;3.17;1.27;;;18.00;99.90;;;;;;5031487;28;20720;-69
2022/06/25 04:36:23;;;;;;;4.15;1.17;;;18.30;99.90;;;;;;5030717;28;20671;-69
2022/06/25 04:38:49;;;;;;;4.15;1.10;;;18.60;99.90;;;;;;5030895;28;20229;-69
2022/06/25 04:41:15;;;;;;;4.22;1.27;;;19.00;99.90;;;;;;5030817;28;20174;-69
2022/06/25 04:43:40;;;;;;;4.10;1.30;;;19.30;99.90;;;;;;5031055;28;20178;-69
2022/06/25 04:46:06;;;;;;;4.85;1.05;;;19.70;99.90;;;;;;5030931;28;20696;-69
2022/06/25 04:48:31;;;;;;;5.40;1.20;;;20.00;99.90;;;;;;5030557;28;20190;-69
2022/06/25 04:50:57;;;;;;;4.03;1.00;;;20.40;99.90;;;;;;5029828;28;20218;-69
2022/06/25 04:53:23;;;;;;;2.38;1.20;;;20.70;99.90;;;;;;5030699;28;20260;-69
2022/06/25 04:55:48;;;;;;;2.60;1.15;;;21.10;99.90;;;;;;5030982;28;20186;-69
2022/06/25 04:58:14;;;;;;;3.05;1.23;;;21.50;99.90;;;;;;5030871;28;20225;-70
2022/06/25 05:00:40;;;;;;;2.65;1.40;;;21.80;99.90;;;;;;5022766;28;20190;-69
2022/06/25 05:03:08;;;;;;;3.20;0.98;;;22.10;99.90;;;;;;5034436;28;20537;-69
2022/06/25 05:05:35;;;;;;;3.55;1.05;;;22.50;99.90;;;;;;5016744;28;20193;-69
2022/06/25 05:08:01;;;;;;;2.25;0.90;;;22.80;99.90;;;;;;5034844;28;20182;-69
2022/06/25 05:10:26;;;;;;;1.35;1.20;;;23.20;99.90;;;;;;5034280;28;20175;-69
2022/06/25 05:15:37;;;;;;;3.85;1.13;;;23.70;99.90;;;;;;5034166;28;20223;-68
2022/06/25 05:18:03;;;;;;;3.78;1.85;;;24.00;99.90;;;;;;5028259;28;20214;-68
2022/06/25 05:20:29;;;;;;;2.67;1.38;;;24.20;99.90;;;;;;5029103;28;20182;-67
2022/06/25 05:22:55;;;;;;;3.33;1.10;;;24.50;99.90;;;;;;5034188;28;20189;-70
2022/06/25 05:25:20;;;;;;;5.20;1.08;;;24.90;99.90;;;;;;5034400;28;20217;-67
2022/06/25 05:27:46;;;;;;;6.72;1.38;;;25.30;99.60;;;;;;5033925;28;20545;-66
2022/06/25 05:30:11;;;;;;;6.53;1.20;;;25.60;98.70;;;;;;5034382;28;20174;-66
2022/06/25 05:32:37;;;;;;;5.45;1.80;;;25.90;98.20;;;;;;5034035;28;20190;-66
2022/06/25 05:35:04;;;;;;;2.33;0.80;;;26.20;97.30;;;;;;5034157;28;20182;-69
2022/06/25 05:37:29;;;;;;;3.67;1.08;;;26.50;96.70;;;;;;5033510;28;20213;-69
2022/06/25 05:39:55;;;;;;;3.47;1.10;;;26.80;95.80;;;;;;5034283;28;20213;-69
2022/06/25 05:42:20;;;;;;;1.05;0.90;;;27.20;95.40;;;;;;5026874;28;20266;-69
2022/06/25 05:44:47;;;;;;;7.25;1.25;;;27.60;95.10;;;;;;5014166;28;20171;-69
2022/06/25 05:47:13;;;;;;;3.42;0.93;;;27.90;94.20;;;;;;5023715;28;20174;-70
2022/06/25 05:49:38;;;;;;;2.45;1.00;;;28.10;93.60;;;;;;5033977;28;20200;-70
2022/06/25 05:52:05;;;;;;;3.67;1.15;;;28.20;92.80;;;;;;5033920;28;20209;-69
2022/06/25 05:54:30;;;;;;;2.42;0.82;;;28.50;92.20;;;;;;5032446;28;20174;-70
2022/06/25 05:56:56;;;;;;;2.35;1.00;;;28.80;91.20;;;;;;5020789;28;20233;-70
2022/06/25 05:59:21;;;;;;;3.08;1.10;;;29.10;90.20;;;;;;5014179;28;20219;-69
2022/06/25 06:01:47;;;;;;;2.97;0.75;;;29.30;90.10;;;;;;5033722;28;20266;-69
2022/06/25 06:04:12;;;;;;;4.00;0.77;;;29.60;89.20;;;;;;5033928;28;20232;-69
2022/06/25 06:06:38;;;;;;;2.28;1.00;;;29.90;87.90;;;;;;5033741;28;20186;-70
2022/06/25 06:09:03;;;;;;;4.05;0.98;;;30.30;85.20;;;;;;5033591;28;20581;-70
2022/06/25 06:11:29;;;;;;;3.60;0.70;;;30.80;83.10;;;;;;5032793;28;20545;-70
2022/06/25 06:13:54;;;;;;;2.90;1.02;;;31.00;82.30;;;;;;5014530;28;20186;-70
2022/06/25 06:16:20;;;;;;;2.00;1.00;;;31.20;81.30;;;;;;5013833;28;20210;-70
2022/06/25 06:18:45;;;;;;;3.80;0.90;;;31.60;78.10;;;;;;5013686;28;20275;-70
2022/06/25 06:21:11;;;;;;;5.72;0.85;;;31.90;76.00;;;;;;5013784;28;20563;-70
2022/06/25 06:23:36;;;;;;;2.35;0.90;;;32.40;73.90;;;;;;5022003;28;20757;-70
2022/06/25 06:26:02;;;;;;;2.38;0.80;;;32.90;71.40;;;;;;5032833;28;20193;-71
2022/06/25 06:28:27;;;;;;;1.98;0.75;;;33.30;69.80;;;;;;5015333;28;20185;-71
2022/06/25 06:30:53;;;;;;;2.47;0.82;;;33.70;67.30;;;;;;5033158;28;20181;-72
2022/06/25 06:33:18;;;;;;;0.47;0.47;;;33.80;64.20;;;;;;5032969;28;20200;-71
2022/06/25 06:35:44;;;;;;;1.05;0.55;;;34.00;61.70;;;;;;5033078;28;20675;-71
2022/06/25 06:38:09;;;;;;;0.70;0.70;;;34.30;59.20;;;;;;5031624;28;20228;-72
2022/06/25 06:40:35;;;;;;;1.98;0.60;;;34.40;60.00;;;;;;5032612;28;20185;-71
2022/06/25 06:43:01;;;;;;;0.63;0.63;;;34.60;59.20;;;;;;5035292;28;20227;-71
2022/06/25 06:45:26;;;;;;;2.38;0.80;;;34.80;58.70;;;;;;5041879;28;20204;-71
2022/06/25 06:47:52;;;;;;;0.68;0.68;;;34.60;58.60;;;;;;5033206;28;20173;-71
2022/06/25 06:50:18;;;;;;;1.55;0.82;;;34.60;58.40;;;;;;5033050;28;20241;-71
2022/06/25 06:52:43;;;;;;;1.35;0.70;;;34.70;56.70;;;;;;5032831;28;20177;-72
2022/06/25 06:55:09;;;;;;;2.10;1.60;;;34.90;56.70;;;;;;5040087;28;20202;-71
2022/06/25 06:57:35;;;;;;;1.90;0.70;;;35.30;56.10;;;;;;5041919;28;20219;-71
2022/06/25 07:00:06;;;;;;;2.75;0.88;;;35.60;54.10;;;;;;5032898;28;20251;-70
2022/06/25 07:02:32;;;;;;;0.85;0.85;;;35.90;53.90;;;;;;5032833;28;20510;-71
2022/06/25 07:04:57;;;;;;;0.77;0.77;;;36.20;53.50;;;;;;5032809;28;20182;-67
2022/06/25 07:07:23;;;;;;;1.30;0.63;;;36.40;52.40;;;;;;5032676;28;20260;-66
2022/06/25 07:09:49;;;;;;;0.90;0.70;;;36.60;52.10;;;;;;5032755;28;20181;-67
2022/06/25 07:12:15;;;;;;;1.42;0.63;;;36.60;52.30;;;;;;5032287;28;20232;-69
2022/06/25 07:14:41;;;;;;;1.67;0.70;;;36.50;52.40;;;;;;5032609;28;20182;-69
2022/06/25 07:17:06;;;;;;;2.67;0.80;;;36.30;52.40;;;;;;5032340;28;20541;-69
2022/06/25 07:19:32;;;;;;;3.90;0.90;;;35.90;52.50;;;;;;5032523;28;20227;-69
2022/06/25 07:21:57;;;;;;;0.68;0.68;;;36.00;52.80;;;;;;5032242;28;20215;-69
2022/06/25 07:24:23;;;;;;;1.15;0.80;;;35.80;52.40;;;;;;5032453;28;20189;-69
2022/06/25 07:26:49;;;;;;;0.65;0.55;;;35.80;52.60;;;;;;5032032;28;20169;-69
2022/06/25 07:29:15;;;;;;;3.53;0.80;;;36.00;52.80;;;;;;5032361;28;20177;-69
2022/06/25 07:31:40;;;;;;;1.50;0.95;;;36.30;52.30;;;;;;5031978;28;20186;-69
2022/06/25 07:34:06;;;;;;;2.15;1.25;;;36.60;51.50;;;;;;5032339;28;20213;-68
2022/06/25 07:36:31;;;;;;;1.65;0.70;;;36.80;51.30;;;;;;5030377;28;20196;-69
2022/06/25 07:38:57;;;;;;;0.80;0.80;;;36.80;51.70;;;;;;5026655;28;20234;-69
2022/06/25 07:41:23;;;;;;;1.85;0.80;;;36.60;51.10;;;;;;5012521;28;20202;-69
2022/06/25 07:43:49;;;;;;;0.90;0.90;;;36.30;50.70;;;;;;5012435;28;20174;-69
2022/06/25 07:46:14;;;;;;;1.75;0.90;;;36.10;51.30;;;;;;5019516;28;20532;-69
2022/06/25 07:48:40;;;;;;;2.20;0.98;;;35.90;51.30;;;;;;5032075;28;20188;-69
2022/06/25 07:53:50;;;;;;;1.27;0.98;;;35.90;53.10;;;;;;5032112;28;20238;-69
2022/06/25 07:56:16;;;;;;;0.80;0.65;;;35.80;52.50;;;;;;5031759;28;20173;-69
2022/06/25 07:58:41;;;;;;;1.10;1.00;;;35.60;52.60;;;;;;5031992;28;20231;-68
2022/06/25 08:01:07;;;;;;;1.23;1.23;;;35.50;51.60;;;;;;5030925;28;20411;-68
2022/06/25 08:03:33;;;;;;;1.60;1.50;;;35.60;52.00;;;;;;5026873;28;20190;-68
2022/06/25 08:05:58;;;;;;;2.15;1.20;;;35.60;51.90;;;;;;5012214;28;20178;-68
2022/06/25 08:08:24;;;;;;;1.20;1.08;;;35.60;52.30;;;;;;5012238;28;20208;-68
2022/06/25 08:10:51;;;;;;;5.15;3.67;;;35.60;52.40;;;;;;5016841;28;20181;-68
2022/06/25 08:13:17;;;;;;;0.90;0.90;;;35.60;52.30;;;;;;5031842;28;20181;-68
2022/06/25 08:15:43;;;;;;;2.58;1.10;;;35.60;51.80;;;;;;5031549;28;20614;-68
2022/06/25 08:18:08;;;;;;;2.50;1.50;;;35.00;51.60;;;;;;5031430;28;20205;-68
2022/06/25 08:20:34;;;;;;;1.20;1.10;;;34.50;53.20;;;;;;5013586;28;20264;-66
2022/06/25 08:22:59;;;;;;;3.70;1.13;;;34.10;52.60;;;;;;5018035;28;20186;-67
2022/06/25 08:25:25;;;;;;;1.08;0.95;;;34.00;53.90;;;;;;5013767;28;20182;-67
2022/06/25 08:27:53;;;;;;;1.10;0.95;;;34.20;53.30;;;;;;5025492;28;20232;-65
2022/06/25 08:30:20;;;;;;;0.70;0.70;;;34.70;53.10;;;;;;5016926;28;20170;-66
2022/06/25 08:32:46;;;;;;;2.78;0.90;;;34.80;52.20;;;;;;5031533;28;20235;-71
2022/06/25 08:35:12;;;;;;;1.30;1.00;;;35.00;53.40;;;;;;5030922;28;20583;-72
2022/06/25 08:37:39;;;;;;;1.42;0.95;;;35.30;52.30;;;;;;4997836;28;20583;-72
2022/06/25 08:40:08;;;;;;;1.50;1.10;;;35.50;51.60;;;;;;5024170;28;20173;-71
2022/06/25 08:42:34;;;;;;;1.00;1.00;;;35.60;52.00;;;;;;5035479;28;20166;-72
2022/06/25 08:45:00;;;;;;;0.80;0.80;;;35.40;50.70;;;;;;5017341;28;20298;-74
2022/06/25 08:47:26;;;;;;;1.92;1.02;;;35.10;50.00;;;;;;5034120;28;20257;-73
2022/06/25 08:49:52;;;;;;;1.98;0.93;;;34.70;49.70;;;;;;5035306;28;20732;-72
2022/06/25 08:52:19;;;;;;;1.88;0.95;;;34.40;51.70;;;;;;5034044;28;20186;-73
2022/06/25 08:54:46;;;;;;;1.15;1.05;;;34.20;50.70;;;;;;5021302;28;20526;-73
2022/06/25 08:57:12;;;;;;;1.48;0.85;;;34.20;50.90;;;;;;5046735;28;20177;-73
2022/06/25 08:59:38;;;;;;;1.42;0.85;;;34.20;51.80;;;;;;5052710;28;20227;-72
2022/06/25 09:02:04;;;;;;;2.10;0.90;;;34.30;52.60;;;;;;5039820;28;20184;-74
2022/06/25 09:04:30;;;;;;;1.27;0.90;;;34.50;51.40;;;;;;5047078;28;20191;-73
2022/06/25 09:07:15;;;;;;;1.05;0.95;;;34.50;53.30;;;;;;5017333;28;20635;-73
2022/06/25 09:09:45;;;;;;;1.02;0.80;;;34.60;53.10;;;;;;5034942;28;20261;-73
2022/06/25 09:12:13;;;;;;;2.65;0.95;;;34.70;52.00;;;;;;5034950;28;20181;-75
2022/06/25 09:14:39;;;;;;;1.45;0.98;;;34.70;50.70;;;;;;5034268;28;20181;-74
2022/06/25 09:17:06;;;;;;;1.33;0.98;;;34.10;50.20;;;;;;5034798;28;20223;-75
2022/06/25 09:19:36;;;;;;;1.90;1.10;;;33.50;52.90;;;;;;5033070;28;20312;-74
2022/06/25 09:22:05;;;;;;;1.83;1.10;;;32.80;53.50;;;;;;5019107;28;20202;-75
2022/06/25 09:24:51;;;;;;;1.00;1.00;;;32.10;54.60;;;;;;5017501;28;20228;-74
2022/06/25 09:27:36;;;;;;;2.83;0.88;;;31.20;54.90;;;;;;5034670;28;20224;-74
2022/06/25 09:30:12;;;;;;;1.27;1.00;;;30.90;57.20;;;;;;5029310;28;20193;-74
2022/06/25 09:32:41;;;;;;;1.10;1.00;;;30.90;57.90;;;;;;5034513;28;20284;-74
2022/06/25 09:35:07;;;;;;;0.95;0.95;;;31.20;58.20;;;;;;5034585;28;20276;-74
2022/06/25 09:37:33;;;;;;;1.33;1.20;;;31.60;58.30;;;;;;5034224;28;20312;-74
2022/06/25 09:39:58;;;;;;;1.10;1.00;;;31.80;58.40;;;;;;5034496;28;20257;-74
2022/06/25 09:42:32;;;;;;;3.88;1.30;;;31.90;57.30;;;;;;5034385;28;20174;-73
2022/06/25 09:45:07;;;;;;;3.72;1.17;;;32.20;58.00;;;;;;5016511;28;20189;-74
2022/06/25 09:47:38;;;;;;;1.27;1.05;;;32.70;58.00;;;;;;5033037;28;20174;-74
2022/06/25 09:50:06;;;;;;;3.42;1.00;;;33.10;55.50;;;;;;5034433;28;20305;-74
2022/06/25 09:52:33;;;;;;;2.28;1.40;;;33.50;56.00;;;;;;5034073;28;20200;-74
2022/06/25 09:54:59;;;;;;;4.05;1.33;;;33.60;52.60;;;;;;5016798;28;20204;-73
2022/06/25 09:57:26;;;;;;;1.90;1.20;;;33.60;54.10;;;;;;5033220;28;20640;-73
2022/06/25 09:59:52;;;;;;;2.05;1.13;;;33.40;54.60;;;;;;5034025;28;20178;-74
2022/06/25 10:02:19;;;;;;;3.28;1.20;;;33.30;54.50;;;;;;5034079;28;20244;-73
2022/06/25 10:04:46;;;;;;;2.17;1.00;;;33.10;54.00;;;;;;5034004;28;20637;-74
2022/06/25 10:07:13;;;;;;;2.25;1.50;;;33.20;55.80;;;;;;5033929;28;20178;-74
2022/06/25 10:09:41;;;;;;;2.35;1.23;;;32.90;55.40;;;;;;5033883;28;20197;-74
2022/06/25 10:12:09;;;;;;;1.95;1.20;;;32.90;55.00;;;;;;5033778;28;20343;-74
2022/06/25 10:14:36;;;;;;;1.88;1.10;;;32.70;54.90;;;;;;5033674;28;20174;-74
2022/06/25 10:17:03;;;;;;;2.38;1.23;;;32.70;55.20;;;;;;5033881;28;20171;-74
2022/06/25 10:19:31;;;;;;;1.08;1.00;;;32.90;56.20;;;;;;5033532;28;20209;-71
2022/06/25 10:21:59;;;;;;;2.83;1.10;;;33.40;56.50;;;;;;5033608;28;20252;-71
2022/06/25 10:24:24;;;;;;;4.15;1.20;;;33.50;53.80;;;;;;5033593;28;20212;-72
2022/06/25 10:26:51;;;;;;;3.03;1.15;;;33.50;53.90;;;;;;5015828;28;20601;-72
2022/06/25 10:29:31;;;;;;;3.22;1.20;;;33.50;53.70;;;;;;5033494;28;20213;-73
2022/06/25 10:32:14;;;;;;;2.92;1.17;;;33.30;54.80;;;;;;5033551;28;20220;-73
2022/06/25 10:34:55;;;;;;;3.25;1.20;;;33.50;55.10;;;;;;5033427;28;20173;-73
2022/06/25 10:37:21;;;;;;;4.05;1.08;;;32.90;52.60;;;;;;5015764;28;20166;-73
2022/06/25 10:39:53;;;;;;;2.75;1.10;;;32.40;54.40;;;;;;5033156;28;20287;-73
2022/06/25 10:45:07;;;;;;;3.08;2.65;;;32.20;55.30;;;;;;5033268;28;20256;-73
2022/06/25 10:47:41;;;;;;;1.33;1.23;;;32.30;56.00;;;;;;5033103;28;20170;-73
2022/06/25 10:50:22;;;;;;;0.90;0.90;;;31.90;55.70;;;;;;5033011;28;20182;-73
2022/06/25 10:55:29;;;;;;;1.58;1.20;;;31.90;56.30;;;;;;5032746;28;20186;-73
2022/06/25 10:58:09;;;;;;;1.20;1.10;;;32.10;56.10;;;;;;5032449;28;20248;-73
2022/06/25 11:00:54;;;;;;;1.30;1.10;;;32.00;55.90;;;;;;5015060;28;20182;-73
2022/06/25 11:03:28;;;;;;;2.22;1.23;;;31.70;55.20;;;;;;5032861;28;20249;-72
2022/06/25 11:06:13;;;;;;;1.40;1.30;;;31.20;55.70;;;;;;5032751;28;20173;-73
2022/06/25 11:08:39;;;;;;;1.05;1.05;;;30.80;56.20;;;;;;5031693;28;20294;-72
2022/06/25 11:11:05;;;;;;;1.17;1.00;;;30.90;57.10;;;;;;5025188;28;20178;-72
2022/06/25 11:13:32;;;;;;;1.20;1.10;;;30.80;56.80;;;;;;5024877;28;20182;-72
2022/06/25 11:15:58;;;;;;;0.90;0.90;;;30.70;57.30;;;;;;5032616;28;20328;-72
2022/06/25 11:18:23;;;;;;;3.58;1.38;;;30.60;57.60;;;;;;5032382;28;20286;-72
2022/06/25 11:20:49;;;;;;;1.52;1.15;;;30.70;58.80;;;;;;5032203;28;20189;-72
2022/06/25 11:23:15;;;;;;;1.52;1.23;;;30.60;58.10;;;;;;5032141;28;20189;-72
2022/06/25 11:28:52;;;;;;;1.33;1.08;;;30.90;57.40;;;;;;5013333;28;20190;-72
2022/06/25 11:31:22;;;;;;;3.05;1.10;;;31.20;57.40;;;;;;5021283;28;20652;-72
2022/06/25 11:33:49;;;;;;;1.08;1.05;;;31.20;55.40;;;;;;5031862;28;20198;-71
2022/06/25 11:36:15;;;;;;;1.65;1.10;;;31.20;55.80;;;;;;5031386;28;20197;-74
2022/06/25 11:38:42;;;;;;;2.15;1.13;;;30.90;55.10;;;;;;5032042;28;20234;-72
2022/06/25 11:41:21;;;;;;;0.90;0.90;;;30.90;55.70;;;;;;5035960;28;20542;-73
2022/06/25 11:43:47;;;;;;;1.23;1.10;;;30.80;55.30;;;;;;5014324;28;20642;-73
2022/06/25 11:46:18;;;;;;;1.48;1.27;;;30.80;55.50;;;;;;5000268;28;20316;-74
2022/06/25 11:48:46;;;;;;;1.30;1.20;;;30.80;56.90;;;;;;5031435;28;20197;-73
2022/06/25 11:51:13;;;;;;;1.60;1.13;;;30.60;55.50;;;;;;5012147;28;20178;-73
2022/06/25 11:53:39;;;;;;;1.15;1.08;;;30.50;57.20;;;;;;5028996;28;20189;-72
2022/06/25 11:56:05;;;;;;;4.68;1.08;;;30.30;56.00;;;;;;5031634;28;20546;-73
2022/06/25 11:58:33;;;;;;;1.10;1.00;;;30.30;56.20;;;;;;5031062;28;20210;-73
2022/06/25 12:01:05;;;;;;;1.65;1.27;;;30.10;57.10;;;;;;5031059;28;20529;-73
2022/06/25 12:03:31;;;;;;;2.78;2.10;;;29.90;57.50;;;;;;5030640;28;20232;-73
2022/06/25 12:05:59;;;;;;;1.92;1.40;;;29.90;58.40;;;;;;5031922;28;20181;-73
2022/06/25 12:08:26;;;;;;;4.68;1.20;;;30.20;58.90;;;;;;5031199;28;20217;-73
2022/06/25 12:10:53;;;;;;;2.22;1.35;;;30.30;57.40;;;;;;5015880;28;20212;-74
2022/06/25 12:13:20;;;;;;;1.23;1.20;;;30.10;55.20;;;;;;5016090;28;20194;-73
2022/06/25 12:15:46;;;;;;;2.35;1.20;;;30.00;55.90;;;;;;5021293;28;20186;-73
2022/06/25 12:18:12;;;;;;;1.27;1.17;;;30.20;56.10;;;;;;5034612;28;20221;-73
2022/06/25 12:20:56;;;;;;;1.00;1.00;;;30.60;56.70;;;;;;5035989;28;20231;-73
2022/06/25 12:23:22;;;;;;;3.55;1.05;;;30.80;57.60;;;;;;5034686;28;20181;-73
2022/06/25 12:25:49;;;;;;;1.52;1.17;;;30.90;54.90;;;;;;5034906;28;20209;-73
2022/06/25 12:28:15;;;;;;;2.25;1.10;;;30.90;55.70;;;;;;5035428;28;20193;-73
2022/06/25 12:30:42;;;;;;;1.23;1.02;;;31.10;55.30;;;;;;5035599;28;20182;-74
2022/06/25 12:33:14;;;;;;;1.55;1.20;;;31.20;53.50;;;;;;5034974;28;20221;-72
2022/06/25 12:35:41;;;;;;;1.73;1.33;;;30.80;53.40;;;;;;5035429;28;20174;-69
2022/06/25 12:38:09;;;;;;;2.55;1.35;;;30.60;56.30;;;;;;5034399;28;20756;-69
2022/06/25 12:40:45;;;;;;;1.65;1.02;;;30.70;56.30;;;;;;5017528;28;20186;-69
2022/06/25 12:43:14;;;;;;;3.95;1.02;;;31.10;55.30;;;;;;5017503;28;20193;-70
2022/06/25 12:45:42;;;;;;;1.30;1.23;;;31.20;54.10;;;;;;5035461;28;20659;-70
2022/06/25 12:48:12;;;;;;;0.93;0.93;;;31.10;54.00;;;;;;5015901;28;20905;-69
2022/06/25 12:50:40;;;;;;;2.80;1.00;;;31.00;55.80;;;;;;5027734;28;20241;-70
2022/06/25 12:53:13;;;;;;;1.10;1.00;;;30.80;55.20;;;;;;5015557;28;20182;-68
2022/06/25 12:55:43;;;;;;;1.50;0.90;;;30.60;55.20;;;;;;5030566;28;20178;-66
2022/06/25 12:58:14;;;;;;;7.15;2.05;;;30.70;55.60;;;;;;5035221;28;20229;-66
2022/06/25 13:00:45;;;;;;;1.55;1.23;;;30.70;56.20;;;;;;5034823;28;20213;-67
2022/06/25 13:03:11;;;;;;;1.20;1.10;;;30.90;55.70;;;;;;5028753;28;20174;-67
2022/06/25 13:05:37;;;;;;;2.03;1.00;;;31.10;55.80;;;;;;5015240;28;20617;-66
2022/06/25 13:08:03;;;;;;;2.75;1.10;;;31.30;55.30;;;;;;5027816;28;20181;-68
2022/06/25 13:10:30;;;;;;;2.10;1.45;;;31.50;56.10;;;;;;5035424;28;20208;-70